sensor_id;sensor_type;location;lat;lon;timestamp;temperature;humidity
18392;DHT22;9322;50.932;5.318;2023-04-20T00:00:30;8.50;1.40
18392;DHT22;9322;50.932;5.318;2023-04-20T00:02:55;8.50;1.40
18392;DHT22;9322;50.932;5.318;2023-04-20T00:05:21;8.50;1.40
18392;DHT22;9322;50.932;5.318;2023-04-20T00:07:47;8.40;1.40
18392;DHT22;9322;50.932;5.318;2023-04-20T00:10:13;8.40;1.40
18392;DHT22;9322;50.932;5.318;2023-04-20T00:12:40;8.30;1.40
18392;DHT22;9322;50.932;5.318;2023-04-20T00:15:07;8.30;1.40
18392;DHT22;9322;50.932;5.318;2023-04-20T00:17:32;8.30;1.40
18392;DHT22;9322;50.932;5.318;2023-04-20T00:19:58;8.30;1.40
18392;DHT22;9322;50.932;5.318;2023-04-20T00:22:24;8.30;1.40
18392;DHT22;9322;50.932;5.318;2023-04-20T00:24:50;8.30;1.40
18392;DHT22;9322;50.932;5.318;2023-04-20T00:27:16;8.10;1.40
18392;DHT22;9322;50.932;5.318;2023-04-20T00:29:42;8.10;1.40
18392;DHT22;9322;50.932;5.318;2023-04-20T00:32:07;8.20;1.40
18392;DHT22;9322;50.932;5.318;2023-04-20T00:34:33;8.00;1.40
18392;DHT22;9322;50.932;5.318;2023-04-20T00:36:58;7.90;1.40
18392;DHT22;9322;50.932;5.318;2023-04-20T00:39:24;7.90;1.40
18392;DHT22;9322;50.932;5.318;2023-04-20T00:41:50;7.90;1.40
18392;DHT22;9322;50.932;5.318;2023-04-20T00:44:16;7.80;1.40
18392;DHT22;9322;50.932;5.318;2023-04-20T00:46:41;7.80;1.40
18392;DHT22;9322;50.932;5.318;2023-04-20T00:49:07;7.80;1.40
18392;DHT22;9322;50.932;5.318;2023-04-20T00:51:34;7.70;1.40
18392;DHT22;9322;50.932;5.318;2023-04-20T00:54:00;7.70;1.40
18392;DHT22;9322;50.932;5.318;2023-04-20T00:56:26;7.70;1.40
18392;DHT22;9322;50.932;5.318;2023-04-20T00:58:51;7.60;1.40
18392;DHT22;9322;50.932;5.318;2023-04-20T01:01:17;7.70;1.40
18392;DHT22;9322;50.932;5.318;2023-04-20T01:03:44;7.50;1.40
18392;DHT22;9322;50.932;5.318;2023-04-20T01:06:10;7.50;1.40
18392;DHT22;9322;50.932;5.318;2023-04-20T01:08:50;7.50;1.40
18392;DHT22;9322;50.932;5.318;2023-04-20T01:11:16;7.50;1.40
18392;DHT22;9322;50.932;5.318;2023-04-20T01:13:42;7.50;1.40
18392;DHT22;9322;50.932;5.318;2023-04-20T01:16:08;7.40;1.40
18392;DHT22;9322;50.932;5.318;2023-04-20T01:18:42;7.40;1.40
18392;DHT22;9322;50.932;5.318;2023-04-20T01:21:09;7.40;1.40
18392;DHT22;9322;50.932;5.318;2023-04-20T01:23:34;7.40;1.40
18392;DHT22;9322;50.932;5.318;2023-04-20T01:26:08;7.40;1.40
18392;DHT22;9322;50.932;5.318;2023-04-20T01:28:34;7.20;1.40
18392;DHT22;9322;50.932;5.318;2023-04-20T01:31:00;7.40;1.40
18392;DHT22;9322;50.932;5.318;2023-04-20T01:33:26;7.30;1.40
18392;DHT22;9322;50.932;5.318;2023-04-20T01:35:52;7.20;1.40
18392;DHT22;9322;50.932;5.318;2023-04-20T01:38:19;7.20;1.40
18392;DHT22;9322;50.932;5.318;2023-04-20T01:40:45;7.20;1.40
18392;DHT22;9322;50.932;5.318;2023-04-20T01:43:11;7.20;1.40
18392;DHT22;9322;50.932;5.318;2023-04-20T01:45:36;7.10;1.40
18392;DHT22;9322;50.932;5.318;2023-04-20T01:48:02;7.10;1.40
18392;DHT22;9322;50.932;5.318;2023-04-20T01:50:28;7.10;1.40
18392;DHT22;9322;50.932;5.318;2023-04-20T01:52:53;7.10;1.40
18392;DHT22;9322;50.932;5.318;2023-04-20T01:55:19;7.10;1.40
18392;DHT22;9322;50.932;5.318;2023-04-20T01:57:45;7.10;1.40
18392;DHT22;9322;50.932;5.318;2023-04-20T02:00:11;7.30;1.40
18392;DHT22;9322;50.932;5.318;2023-04-20T02:02:37;7.00;1.40
18392;DHT22;9322;50.932;5.318;2023-04-20T02:05:03;7.10;1.40
18392;DHT22;9322;50.932;5.318;2023-04-20T02:07:29;7.10;1.40
18392;DHT22;9322;50.932;5.318;2023-04-20T02:09:55;7.10;1.40
18392;DHT22;9322;50.932;5.318;2023-04-20T02:12:20;7.00;1.40
18392;DHT22;9322;50.932;5.318;2023-04-20T02:14:46;7.10;1.40
18392;DHT22;9322;50.932;5.318;2023-04-20T02:17:12;7.10;1.40
18392;DHT22;9322;50.932;5.318;2023-04-20T02:19:38;7.00;1.40
18392;DHT22;9322;50.932;5.318;2023-04-20T02:22:04;7.00;1.40
18392;DHT22;9322;50.932;5.318;2023-04-20T02:24:30;7.30;1.40
18392;DHT22;9322;50.932;5.318;2023-04-20T02:26:55;7.20;1.40
18392;DHT22;9322;50.932;5.318;2023-04-20T02:29:21;7.20;1.40
18392;DHT22;9322;50.932;5.318;2023-04-20T02:31:47;7.20;1.40
18392;DHT22;9322;50.932;5.318;2023-04-20T02:34:12;7.20;1.40
18392;DHT22;9322;50.932;5.318;2023-04-20T02:36:38;7.10;1.40
18392;DHT22;9322;50.932;5.318;2023-04-20T02:39:04;7.10;1.40
18392;DHT22;9322;50.932;5.318;2023-04-20T02:41:30;7.10;1.40
18392;DHT22;9322;50.932;5.318;2023-04-20T02:43:56;6.90;1.40
18392;DHT22;9322;50.932;5.318;2023-04-20T02:46:21;7.00;1.40
18392;DHT22;9322;50.932;5.318;2023-04-20T02:48:47;7.00;1.40
18392;DHT22;9322;50.932;5.318;2023-04-20T02:51:12;7.00;1.40
18392;DHT22;9322;50.932;5.318;2023-04-20T02:53:38;7.30;1.40
18392;DHT22;9322;50.932;5.318;2023-04-20T02:56:04;7.10;1.40
18392;DHT22;9322;50.932;5.318;2023-04-20T02:58:29;6.90;1.40
18392;DHT22;9322;50.932;5.318;2023-04-20T03:01:01;6.80;1.40
18392;DHT22;9322;50.932;5.318;2023-04-20T03:03:28;6.90;1.40
18392;DHT22;9322;50.932;5.318;2023-04-20T03:05:54;6.80;1.40
18392;DHT22;9322;50.932;5.318;2023-04-20T03:08:21;7.00;1.40
18392;DHT22;9322;50.932;5.318;2023-04-20T03:10:47;6.90;1.40
18392;DHT22;9322;50.932;5.318;2023-04-20T03:13:12;6.90;1.40
18392;DHT22;9322;50.932;5.318;2023-04-20T03:15:38;6.90;1.40
18392;DHT22;9322;50.932;5.318;2023-04-20T03:18:04;6.80;1.40
18392;DHT22;9322;50.932;5.318;2023-04-20T03:20:29;6.70;1.40
18392;DHT22;9322;50.932;5.318;2023-04-20T03:22:55;6.60;1.40
18392;DHT22;9322;50.932;5.318;2023-04-20T03:25:21;6.60;1.40
18392;DHT22;9322;50.932;5.318;2023-04-20T03:27:47;6.50;1.40
18392;DHT22;9322;50.932;5.318;2023-04-20T03:30:13;6.40;1.40
18392;DHT22;9322;50.932;5.318;2023-04-20T03:32:39;6.30;1.40
18392;DHT22;9322;50.932;5.318;2023-04-20T03:35:05;6.20;1.40
18392;DHT22;9322;50.932;5.318;2023-04-20T03:37:31;6.20;1.40
18392;DHT22;9322;50.932;5.318;2023-04-20T03:39:57;6.20;1.40
18392;DHT22;9322;50.932;5.318;2023-04-20T03:42:22;6.10;1.40
18392;DHT22;9322;50.932;5.318;2023-04-20T03:44:48;6.10;1.40
18392;DHT22;9322;50.932;5.318;2023-04-20T03:47:14;6.10;1.40
18392;DHT22;9322;50.932;5.318;2023-04-20T03:49:39;6.10;1.40
18392;DHT22;9322;50.932;5.318;2023-04-20T03:52:05;6.20;1.40
18392;DHT22;9322;50.932;5.318;2023-04-20T03:54:31;6.30;1.40
18392;DHT22;9322;50.932;5.318;2023-04-20T03:56:57;6.40;1.40
18392;DHT22;9322;50.932;5.318;2023-04-20T03:59:23;6.50;1.40
18392;DHT22;9322;50.932;5.318;2023-04-20T04:01:48;6.50;1.40
18392;DHT22;9322;50.932;5.318;2023-04-20T04:04:14;6.50;1.40
18392;DHT22;9322;50.932;5.318;2023-04-20T04:06:40;6.40;1.40
18392;DHT22;9322;50.932;5.318;2023-04-20T04:09:05;6.50;1.40
18392;DHT22;9322;50.932;5.318;2023-04-20T04:11:31;6.50;1.40
18392;DHT22;9322;50.932;5.318;2023-04-20T04:13:57;6.50;1.40
18392;DHT22;9322;50.932;5.318;2023-04-20T04:16:23;6.50;1.40
18392;DHT22;9322;50.932;5.318;2023-04-20T04:18:50;6.60;1.40
18392;DHT22;9322;50.932;5.318;2023-04-20T04:21:15;6.70;1.40
18392;DHT22;9322;50.932;5.318;2023-04-20T04:23:41;6.60;1.40
18392;DHT22;9322;50.932;5.318;2023-04-20T04:26:08;6.90;1.40
18392;DHT22;9322;50.932;5.318;2023-04-20T04:28:34;6.70;1.40
18392;DHT22;9322;50.932;5.318;2023-04-20T04:31:00;6.80;1.40
18392;DHT22;9322;50.932;5.318;2023-04-20T04:33:33;6.90;1.40
18392;DHT22;9322;50.932;5.318;2023-04-20T04:35:59;6.80;1.40
18392;DHT22;9322;50.932;5.318;2023-04-20T04:38:26;6.90;1.40
18392;DHT22;9322;50.932;5.318;2023-04-20T04:40:52;6.80;1.40
18392;DHT22;9322;50.932;5.318;2023-04-20T04:43:18;6.70;1.40
18392;DHT22;9322;50.932;5.318;2023-04-20T04:45:44;6.80;1.40
18392;DHT22;9322;50.932;5.318;2023-04-20T04:48:10;6.70;1.40
18392;DHT22;9322;50.932;5.318;2023-04-20T04:50:39;6.80;1.40
18392;DHT22;9322;50.932;5.318;2023-04-20T04:53:05;7.00;1.40
18392;DHT22;9322;50.932;5.318;2023-04-20T04:55:31;7.10;1.40
18392;DHT22;9322;50.932;5.318;2023-04-20T04:57:57;7.10;1.40
18392;DHT22;9322;50.932;5.318;2023-04-20T05:00:22;7.00;1.40
18392;DHT22;9322;50.932;5.318;2023-04-20T05:02:49;7.00;1.40
18392;DHT22;9322;50.932;5.318;2023-04-20T05:05:17;7.20;1.40
18392;DHT22;9322;50.932;5.318;2023-04-20T05:07:43;7.30;1.40
18392;DHT22;9322;50.932;5.318;2023-04-20T05:10:09;7.20;1.40
18392;DHT22;9322;50.932;5.318;2023-04-20T05:12:35;7.20;1.40
18392;DHT22;9322;50.932;5.318;2023-04-20T05:15:01;7.30;1.40
18392;DHT22;9322;50.932;5.318;2023-04-20T05:17:26;7.30;1.40
18392;DHT22;9322;50.932;5.318;2023-04-20T05:19:52;7.30;1.40
18392;DHT22;9322;50.932;5.318;2023-04-20T05:22:18;7.20;1.40
18392;DHT22;9322;50.932;5.318;2023-04-20T05:24:43;7.00;1.40
18392;DHT22;9322;50.932;5.318;2023-04-20T05:27:09;7.00;1.40
18392;DHT22;9322;50.932;5.318;2023-04-20T05:29:36;6.90;1.40
18392;DHT22;9322;50.932;5.318;2023-04-20T05:32:01;6.80;1.40
18392;DHT22;9322;50.932;5.318;2023-04-20T05:34:28;6.60;1.40
18392;DHT22;9322;50.932;5.318;2023-04-20T05:36:53;6.50;1.40
18392;DHT22;9322;50.932;5.318;2023-04-20T05:39:21;6.30;1.40
18392;DHT22;9322;50.932;5.318;2023-04-20T05:41:47;6.00;1.40
18392;DHT22;9322;50.932;5.318;2023-04-20T05:44:13;6.00;1.40
18392;DHT22;9322;50.932;5.318;2023-04-20T05:46:38;5.70;1.40
18392;DHT22;9322;50.932;5.318;2023-04-20T05:49:04;5.50;1.40
18392;DHT22;9322;50.932;5.318;2023-04-20T05:51:30;5.30;1.40
18392;DHT22;9322;50.932;5.318;2023-04-20T05:54:01;5.20;1.40
18392;DHT22;9322;50.932;5.318;2023-04-20T05:56:26;5.20;1.40
18392;DHT22;9322;50.932;5.318;2023-04-20T05:58:54;5.10;1.40
18392;DHT22;9322;50.932;5.318;2023-04-20T06:01:20;5.00;1.40
18392;DHT22;9322;50.932;5.318;2023-04-20T06:03:46;5.10;1.40
18392;DHT22;9322;50.932;5.318;2023-04-20T06:06:13;5.10;1.40
18392;DHT22;9322;50.932;5.318;2023-04-20T06:08:39;5.10;1.40
18392;DHT22;9322;50.932;5.318;2023-04-20T06:11:05;5.00;1.40
18392;DHT22;9322;50.932;5.318;2023-04-20T06:13:31;5.20;1.40
18392;DHT22;9322;50.932;5.318;2023-04-20T06:15:57;5.30;1.40
18392;DHT22;9322;50.932;5.318;2023-04-20T06:18:22;5.50;1.40
18392;DHT22;9322;50.932;5.318;2023-04-20T06:20:48;5.40;1.40
18392;DHT22;9322;50.932;5.318;2023-04-20T06:23:14;5.40;1.40
18392;DHT22;9322;50.932;5.318;2023-04-20T06:25:39;5.40;1.40
18392;DHT22;9322;50.932;5.318;2023-04-20T06:28:05;5.50;1.40
18392;DHT22;9322;50.932;5.318;2023-04-20T06:30:32;5.50;1.40
18392;DHT22;9322;50.932;5.318;2023-04-20T06:33:01;5.60;1.40
18392;DHT22;9322;50.932;5.318;2023-04-20T06:35:27;5.60;1.40
18392;DHT22;9322;50.932;5.318;2023-04-20T06:37:53;5.80;1.40
18392;DHT22;9322;50.932;5.318;2023-04-20T06:40:22;5.70;1.40
18392;DHT22;9322;50.932;5.318;2023-04-20T06:42:48;5.80;1.40
18392;DHT22;9322;50.932;5.318;2023-04-20T06:45:13;5.90;1.40
18392;DHT22;9322;50.932;5.318;2023-04-20T06:47:39;5.80;1.40
18392;DHT22;9322;50.932;5.318;2023-04-20T06:50:06;6.00;1.40
18392;DHT22;9322;50.932;5.318;2023-04-20T06:52:35;6.20;1.40
18392;DHT22;9322;50.932;5.318;2023-04-20T06:55:01;6.20;1.40
18392;DHT22;9322;50.932;5.318;2023-04-20T06:57:26;6.30;1.40
18392;DHT22;9322;50.932;5.318;2023-04-20T06:59:52;6.30;1.40
18392;DHT22;9322;50.932;5.318;2023-04-20T07:02:18;6.40;1.40
18392;DHT22;9322;50.932;5.318;2023-04-20T07:04:43;6.40;1.40
18392;DHT22;9322;50.932;5.318;2023-04-20T07:07:09;6.50;1.40
18392;DHT22;9322;50.932;5.318;2023-04-20T07:09:34;6.50;1.40
18392;DHT22;9322;50.932;5.318;2023-04-20T07:12:01;6.30;1.40
18392;DHT22;9322;50.932;5.318;2023-04-20T07:14:27;6.30;1.40
18392;DHT22;9322;50.932;5.318;2023-04-20T07:16:53;6.30;1.40
18392;DHT22;9322;50.932;5.318;2023-04-20T07:19:18;6.30;1.40
18392;DHT22;9322;50.932;5.318;2023-04-20T07:21:44;6.40;1.40
18392;DHT22;9322;50.932;5.318;2023-04-20T07:24:10;6.50;1.40
18392;DHT22;9322;50.932;5.318;2023-04-20T07:26:35;6.50;1.40
18392;DHT22;9322;50.932;5.318;2023-04-20T07:29:01;6.50;1.40
18392;DHT22;9322;50.932;5.318;2023-04-20T07:31:26;6.50;1.40
18392;DHT22;9322;50.932;5.318;2023-04-20T07:33:52;6.50;1.40
18392;DHT22;9322;50.932;5.318;2023-04-20T07:36:18;6.60;1.40
18392;DHT22;9322;50.932;5.318;2023-04-20T07:38:44;6.60;1.40
18392;DHT22;9322;50.932;5.318;2023-04-20T07:41:10;6.70;1.40
18392;DHT22;9322;50.932;5.318;2023-04-20T07:43:36;6.80;1.40
18392;DHT22;9322;50.932;5.318;2023-04-20T07:46:03;6.80;1.40
18392;DHT22;9322;50.932;5.318;2023-04-20T07:48:29;6.80;1.40
18392;DHT22;9322;50.932;5.318;2023-04-20T07:50:56;6.90;1.40
18392;DHT22;9322;50.932;5.318;2023-04-20T07:53:21;7.00;1.40
18392;DHT22;9322;50.932;5.318;2023-04-20T07:55:47;6.90;1.40
18392;DHT22;9322;50.932;5.318;2023-04-20T07:58:13;7.10;1.40
18392;DHT22;9322;50.932;5.318;2023-04-20T08:00:40;7.10;1.40
18392;DHT22;9322;50.932;5.318;2023-04-20T08:03:06;7.10;1.40
18392;DHT22;9322;50.932;5.318;2023-04-20T08:05:31;7.20;1.40
18392;DHT22;9322;50.932;5.318;2023-04-20T08:07:57;7.20;1.40
18392;DHT22;9322;50.932;5.318;2023-04-20T08:10:23;7.20;1.40
18392;DHT22;9322;50.932;5.318;2023-04-20T08:12:49;7.30;99.90
18392;DHT22;9322;50.932;5.318;2023-04-20T08:15:14;7.40;99.90
18392;DHT22;9322;50.932;5.318;2023-04-20T08:17:40;7.60;99.90
18392;DHT22;9322;50.932;5.318;2023-04-20T08:20:06;7.70;99.90
18392;DHT22;9322;50.932;5.318;2023-04-20T08:22:32;8.00;99.90
18392;DHT22;9322;50.932;5.318;2023-04-20T08:24:58;8.90;99.90
18392;DHT22;9322;50.932;5.318;2023-04-20T08:27:24;9.70;99.90
18392;DHT22;9322;50.932;5.318;2023-04-20T08:29:50;10.20;99.90
18392;DHT22;9322;50.932;5.318;2023-04-20T08:32:16;10.40;99.90
18392;DHT22;9322;50.932;5.318;2023-04-20T08:34:47;10.50;1.40
18392;DHT22;9322;50.932;5.318;2023-04-20T08:37:13;10.30;1.40
18392;DHT22;9322;50.932;5.318;2023-04-20T08:39:38;9.80;1.40
18392;DHT22;9322;50.932;5.318;2023-04-20T08:42:04;9.50;1.40
18392;DHT22;9322;50.932;5.318;2023-04-20T08:44:30;9.40;1.40
18392;DHT22;9322;50.932;5.318;2023-04-20T08:46:56;9.10;1.40
18392;DHT22;9322;50.932;5.318;2023-04-20T08:49:22;8.90;1.40
18392;DHT22;9322;50.932;5.318;2023-04-20T08:51:48;8.70;1.40
18392;DHT22;9322;50.932;5.318;2023-04-20T08:54:14;8.80;1.40
18392;DHT22;9322;50.932;5.318;2023-04-20T08:56:42;8.70;1.40
18392;DHT22;9322;50.932;5.318;2023-04-20T08:59:08;8.80;1.40
18392;DHT22;9322;50.932;5.318;2023-04-20T09:01:38;8.90;1.40
18392;DHT22;9322;50.932;5.318;2023-04-20T09:04:22;8.80;1.40
18392;DHT22;9322;50.932;5.318;2023-04-20T09:06:53;8.80;1.40
18392;DHT22;9322;50.932;5.318;2023-04-20T09:09:21;8.80;1.40
18392;DHT22;9322;50.932;5.318;2023-04-20T09:12:05;8.90;1.40
18392;DHT22;9322;50.932;5.318;2023-04-20T09:14:47;9.00;1.40
18392;DHT22;9322;50.932;5.318;2023-04-20T09:17:14;9.30;1.40
18392;DHT22;9322;50.932;5.318;2023-04-20T09:19:43;9.10;1.40
18392;DHT22;9322;50.932;5.318;2023-04-20T09:22:09;9.00;1.40
18392;DHT22;9322;50.932;5.318;2023-04-20T09:24:36;8.80;1.40
18392;DHT22;9322;50.932;5.318;2023-04-20T09:27:22;8.80;1.40
18392;DHT22;9322;50.932;5.318;2023-04-20T09:32:23;9.20;1.40
18392;DHT22;9322;50.932;5.318;2023-04-20T09:34:49;9.90;1.40
18392;DHT22;9322;50.932;5.318;2023-04-20T09:37:15;10.20;1.40
18392;DHT22;9322;50.932;5.318;2023-04-20T09:39:45;10.20;1.40
18392;DHT22;9322;50.932;5.318;2023-04-20T09:42:12;10.10;1.40
18392;DHT22;9322;50.932;5.318;2023-04-20T09:44:39;10.30;1.40
18392;DHT22;9322;50.932;5.318;2023-04-20T09:47:05;10.30;1.40
18392;DHT22;9322;50.932;5.318;2023-04-20T09:49:32;10.20;1.40
18392;DHT22;9322;50.932;5.318;2023-04-20T09:52:01;9.80;1.40
18392;DHT22;9322;50.932;5.318;2023-04-20T09:54:28;9.70;1.40
18392;DHT22;9322;50.932;5.318;2023-04-20T09:56:54;9.60;1.40
18392;DHT22;9322;50.932;5.318;2023-04-20T09:59:21;9.50;1.40
18392;DHT22;9322;50.932;5.318;2023-04-20T10:01:47;9.40;1.40
18392;DHT22;9322;50.932;5.318;2023-04-20T10:04:13;9.30;1.40
18392;DHT22;9322;50.932;5.318;2023-04-20T10:06:39;9.10;1.40
18392;DHT22;9322;50.932;5.318;2023-04-20T10:09:21;8.80;1.40
18392;DHT22;9322;50.932;5.318;2023-04-20T10:11:47;8.70;1.40
18392;DHT22;9322;50.932;5.318;2023-04-20T10:14:23;9.00;1.40
18392;DHT22;9322;50.932;5.318;2023-04-20T10:19:34;9.30;1.40
18392;DHT22;9322;50.932;5.318;2023-04-20T10:22:00;9.70;1.40
18392;DHT22;9322;50.932;5.318;2023-04-20T10:24:29;9.90;1.40
18392;DHT22;9322;50.932;5.318;2023-04-20T10:26:55;10.10;1.40
18392;DHT22;9322;50.932;5.318;2023-04-20T10:29:28;10.30;1.40
18392;DHT22;9322;50.932;5.318;2023-04-20T10:31:54;10.40;1.40
18392;DHT22;9322;50.932;5.318;2023-04-20T10:34:34;10.50;1.40
18392;DHT22;9322;50.932;5.318;2023-04-20T10:37:10;10.70;1.40
18392;DHT22;9322;50.932;5.318;2023-04-20T10:39:43;10.70;1.40
18392;DHT22;9322;50.932;5.318;2023-04-20T10:42:09;10.70;1.40
18392;DHT22;9322;50.932;5.318;2023-04-20T10:44:35;10.80;1.40
18392;DHT22;9322;50.932;5.318;2023-04-20T10:47:00;10.70;1.40
18392;DHT22;9322;50.932;5.318;2023-04-20T10:49:27;10.50;1.40
18392;DHT22;9322;50.932;5.318;2023-04-20T10:51:54;10.40;1.40
18392;DHT22;9322;50.932;5.318;2023-04-20T10:54:20;10.30;1.40
18392;DHT22;9322;50.932;5.318;2023-04-20T10:56:47;10.60;1.40
18392;DHT22;9322;50.932;5.318;2023-04-20T10:59:16;10.50;1.40
18392;DHT22;9322;50.932;5.318;2023-04-20T11:01:42;10.60;1.40
18392;DHT22;9322;50.932;5.318;2023-04-20T11:04:09;10.30;1.40
18392;DHT22;9322;50.932;5.318;2023-04-20T11:06:37;10.00;1.40
18392;DHT22;9322;50.932;5.318;2023-04-20T11:09:14;10.20;1.40
18392;DHT22;9322;50.932;5.318;2023-04-20T11:11:42;10.20;1.40
18392;DHT22;9322;50.932;5.318;2023-04-20T11:14:09;9.90;1.40
18392;DHT22;9322;50.932;5.318;2023-04-20T11:16:36;9.90;1.40
18392;DHT22;9322;50.932;5.318;2023-04-20T11:19:02;10.10;1.40
18392;DHT22;9322;50.932;5.318;2023-04-20T11:21:36;10.40;1.40
18392;DHT22;9322;50.932;5.318;2023-04-20T11:24:03;10.50;1.40
18392;DHT22;9322;50.932;5.318;2023-04-20T11:26:38;10.60;1.40
18392;DHT22;9322;50.932;5.318;2023-04-20T11:29:05;10.30;1.40
18392;DHT22;9322;50.932;5.318;2023-04-20T11:31:31;10.40;1.40
18392;DHT22;9322;50.932;5.318;2023-04-20T11:33:57;10.40;1.40
18392;DHT22;9322;50.932;5.318;2023-04-20T11:36:23;10.40;1.40
18392;DHT22;9322;50.932;5.318;2023-04-20T11:38:51;10.20;1.40
18392;DHT22;9322;50.932;5.318;2023-04-20T11:41:17;10.10;1.40
18392;DHT22;9322;50.932;5.318;2023-04-20T11:43:43;10.10;1.40
18392;DHT22;9322;50.932;5.318;2023-04-20T11:46:19;10.20;1.40
18392;DHT22;9322;50.932;5.318;2023-04-20T11:48:46;10.40;1.40
18392;DHT22;9322;50.932;5.318;2023-04-20T11:51:13;10.20;1.40
18392;DHT22;9322;50.932;5.318;2023-04-20T11:53:39;10.10;1.40
18392;DHT22;9322;50.932;5.318;2023-04-20T11:56:06;9.90;1.40
18392;DHT22;9322;50.932;5.318;2023-04-20T11:58:31;9.40;1.40
18392;DHT22;9322;50.932;5.318;2023-04-20T12:00:57;8.90;1.40
18392;DHT22;9322;50.932;5.318;2023-04-20T12:03:24;8.70;1.40
18392;DHT22;9322;50.932;5.318;2023-04-20T12:05:50;8.20;99.90
18392;DHT22;9322;50.932;5.318;2023-04-20T12:08:16;7.90;99.90
18392;DHT22;9322;50.932;5.318;2023-04-20T12:10:42;7.90;99.90
18392;DHT22;9322;50.932;5.318;2023-04-20T12:13:07;8.00;99.90
18392;DHT22;9322;50.932;5.318;2023-04-20T12:15:33;8.30;99.90
18392;DHT22;9322;50.932;5.318;2023-04-20T12:17:58;8.40;99.90
18392;DHT22;9322;50.932;5.318;2023-04-20T12:20:24;8.80;99.90
18392;DHT22;9322;50.932;5.318;2023-04-20T12:22:50;9.10;99.90
18392;DHT22;9322;50.932;5.318;2023-04-20T12:25:16;9.50;99.90
18392;DHT22;9322;50.932;5.318;2023-04-20T12:27:41;9.70;99.90
18392;DHT22;9322;50.932;5.318;2023-04-20T12:30:07;10.10;99.90
18392;DHT22;9322;50.932;5.318;2023-04-20T12:32:34;10.30;99.90
18392;DHT22;9322;50.932;5.318;2023-04-20T12:34:59;10.40;99.90
18392;DHT22;9322;50.932;5.318;2023-04-20T12:37:25;10.50;1.40
18392;DHT22;9322;50.932;5.318;2023-04-20T12:39:51;10.60;1.40
18392;DHT22;9322;50.932;5.318;2023-04-20T12:42:17;10.90;1.40
18392;DHT22;9322;50.932;5.318;2023-04-20T12:44:43;10.90;1.40
18392;DHT22;9322;50.932;5.318;2023-04-20T12:47:09;10.70;1.40
18392;DHT22;9322;50.932;5.318;2023-04-20T12:49:35;10.80;1.40
18392;DHT22;9322;50.932;5.318;2023-04-20T12:52:00;10.60;1.40
18392;DHT22;9322;50.932;5.318;2023-04-20T12:54:26;10.80;1.40
18392;DHT22;9322;50.932;5.318;2023-04-20T12:56:52;10.30;1.40
18392;DHT22;9322;50.932;5.318;2023-04-20T12:59:17;10.10;1.40
18392;DHT22;9322;50.932;5.318;2023-04-20T13:01:43;9.90;1.40
18392;DHT22;9322;50.932;5.318;2023-04-20T13:04:09;9.60;1.40
18392;DHT22;9322;50.932;5.318;2023-04-20T13:06:35;8.80;1.40
18392;DHT22;9322;50.932;5.318;2023-04-20T13:09:01;8.00;99.90
18392;DHT22;9322;50.932;5.318;2023-04-20T13:11:29;8.00;99.90
18392;DHT22;9322;50.932;5.318;2023-04-20T13:13:54;8.40;99.90
18392;DHT22;9322;50.932;5.318;2023-04-20T13:16:22;8.60;99.90
18392;DHT22;9322;50.932;5.318;2023-04-20T13:18:48;8.90;99.90
18392;DHT22;9322;50.932;5.318;2023-04-20T13:21:13;9.00;99.90
18392;DHT22;9322;50.932;5.318;2023-04-20T13:23:39;9.20;99.90
18392;DHT22;9322;50.932;5.318;2023-04-20T13:26:06;9.10;99.90
18392;DHT22;9322;50.932;5.318;2023-04-20T13:28:32;9.00;99.90
18392;DHT22;9322;50.932;5.318;2023-04-20T13:30:57;9.00;99.90
18392;DHT22;9322;50.932;5.318;2023-04-20T13:33:23;9.10;99.90
18392;DHT22;9322;50.932;5.318;2023-04-20T13:35:50;9.10;99.90
18392;DHT22;9322;50.932;5.318;2023-04-20T13:38:16;9.00;99.90
18392;DHT22;9322;50.932;5.318;2023-04-20T13:40:42;9.00;99.90
18392;DHT22;9322;50.932;5.318;2023-04-20T13:43:08;9.00;99.90
18392;DHT22;9322;50.932;5.318;2023-04-20T13:45:34;9.30;99.90
18392;DHT22;9322;50.932;5.318;2023-04-20T13:48:00;9.40;99.90
18392;DHT22;9322;50.932;5.318;2023-04-20T13:50:26;9.90;99.90
18392;DHT22;9322;50.932;5.318;2023-04-20T13:52:52;10.30;99.90
18392;DHT22;9322;50.932;5.318;2023-04-20T13:55:18;10.60;1.40
18392;DHT22;9322;50.932;5.318;2023-04-20T13:57:45;10.60;1.40
18392;DHT22;9322;50.932;5.318;2023-04-20T14:00:11;10.90;1.40
18392;DHT22;9322;50.932;5.318;2023-04-20T14:02:38;11.50;1.40
18392;DHT22;9322;50.932;5.318;2023-04-20T14:05:04;11.70;1.40
18392;DHT22;9322;50.932;5.318;2023-04-20T14:07:31;11.70;1.40
18392;DHT22;9322;50.932;5.318;2023-04-20T14:09:58;11.30;1.40
18392;DHT22;9322;50.932;5.318;2023-04-20T14:12:26;10.90;1.40
18392;DHT22;9322;50.932;5.318;2023-04-20T14:14:55;10.40;1.40
18392;DHT22;9322;50.932;5.318;2023-04-20T14:17:22;10.20;1.40
18392;DHT22;9322;50.932;5.318;2023-04-20T14:19:47;10.30;1.40
18392;DHT22;9322;50.932;5.318;2023-04-20T14:22:14;10.30;1.40
18392;DHT22;9322;50.932;5.318;2023-04-20T14:24:41;10.30;1.40
18392;DHT22;9322;50.932;5.318;2023-04-20T14:27:07;10.60;1.40
18392;DHT22;9322;50.932;5.318;2023-04-20T14:29:32;10.30;1.40
18392;DHT22;9322;50.932;5.318;2023-04-20T14:31:58;10.30;1.40
18392;DHT22;9322;50.932;5.318;2023-04-20T14:34:24;10.30;1.40
18392;DHT22;9322;50.932;5.318;2023-04-20T14:36:49;10.50;1.40
18392;DHT22;9322;50.932;5.318;2023-04-20T14:39:17;10.50;1.40
18392;DHT22;9322;50.932;5.318;2023-04-20T14:41:43;10.60;1.40
18392;DHT22;9322;50.932;5.318;2023-04-20T14:44:08;10.90;1.40
18392;DHT22;9322;50.932;5.318;2023-04-20T14:46:34;10.80;1.40
18392;DHT22;9322;50.932;5.318;2023-04-20T14:49:00;10.80;1.40
18392;DHT22;9322;50.932;5.318;2023-04-20T14:51:25;11.00;1.40
18392;DHT22;9322;50.932;5.318;2023-04-20T14:53:52;11.00;1.40
18392;DHT22;9322;50.932;5.318;2023-04-20T14:56:18;11.20;1.40
18392;DHT22;9322;50.932;5.318;2023-04-20T14:58:43;11.10;1.40
18392;DHT22;9322;50.932;5.318;2023-04-20T15:01:09;11.20;1.40
18392;DHT22;9322;50.932;5.318;2023-04-20T15:03:35;11.10;1.40
18392;DHT22;9322;50.932;5.318;2023-04-20T15:06:01;11.30;1.40
18392;DHT22;9322;50.932;5.318;2023-04-20T15:08:27;11.30;1.40
18392;DHT22;9322;50.932;5.318;2023-04-20T15:10:53;11.50;1.40
18392;DHT22;9322;50.932;5.318;2023-04-20T15:13:24;11.50;1.40
18392;DHT22;9322;50.932;5.318;2023-04-20T15:15:50;11.40;1.40
18392;DHT22;9322;50.932;5.318;2023-04-20T15:18:16;11.20;1.40
18392;DHT22;9322;50.932;5.318;2023-04-20T15:20:43;11.40;1.40
18392;DHT22;9322;50.932;5.318;2023-04-20T15:23:08;11.50;1.40
18392;DHT22;9322;50.932;5.318;2023-04-20T15:25:34;11.70;1.40
18392;DHT22;9322;50.932;5.318;2023-04-20T15:28:00;11.50;1.40
18392;DHT22;9322;50.932;5.318;2023-04-20T15:30:27;11.50;1.40
18392;DHT22;9322;50.932;5.318;2023-04-20T15:32:53;11.60;1.40
18392;DHT22;9322;50.932;5.318;2023-04-20T15:35:19;11.60;1.40
18392;DHT22;9322;50.932;5.318;2023-04-20T15:37:44;11.60;1.40
18392;DHT22;9322;50.932;5.318;2023-04-20T15:40:11;11.70;1.40
18392;DHT22;9322;50.932;5.318;2023-04-20T15:42:37;11.90;1.40
18392;DHT22;9322;50.932;5.318;2023-04-20T15:45:03;11.70;1.40
18392;DHT22;9322;50.932;5.318;2023-04-20T15:47:29;11.70;1.40
18392;DHT22;9322;50.932;5.318;2023-04-20T15:49:55;11.30;1.40
18392;DHT22;9322;50.932;5.318;2023-04-20T15:52:26;11.30;1.40
18392;DHT22;9322;50.932;5.318;2023-04-20T15:54:52;11.50;1.40
18392;DHT22;9322;50.932;5.318;2023-04-20T15:57:18;11.50;1.40
18392;DHT22;9322;50.932;5.318;2023-04-20T15:59:43;11.60;1.40
18392;DHT22;9322;50.932;5.318;2023-04-20T16:02:09;11.60;1.40
18392;DHT22;9322;50.932;5.318;2023-04-20T16:04:34;11.60;1.40
18392;DHT22;9322;50.932;5.318;2023-04-20T16:07:00;11.80;1.40
18392;DHT22;9322;50.932;5.318;2023-04-20T16:09:26;11.90;1.40
18392;DHT22;9322;50.932;5.318;2023-04-20T16:11:51;12.00;1.40